createdAt,value
2022-08-26T00:01:11.726Z,101175.00
2022-08-26T00:03:39.225Z,101177.00
2022-08-26T00:06:07.130Z,101174.00
2022-08-26T00:08:35.669Z,101170.00
2022-08-26T00:11:04.852Z,101172.00
2022-08-26T00:13:32.735Z,101167.00
2022-08-26T00:15:59.981Z,101162.00
2022-08-26T00:18:27.339Z,101170.00
2022-08-26T00:20:57.435Z,101166.00
2022-08-26T00:23:24.131Z,101162.00
2022-08-26T00:25:50.742Z,101158.00
2022-08-26T00:28:19.002Z,101155.00
2022-08-26T00:30:49.154Z,101161.00
2022-08-26T00:33:20.010Z,101157.00
2022-08-26T00:35:47.831Z,101152.00
2022-08-26T00:38:14.996Z,101152.00
2022-08-26T00:40:48.626Z,101153.00
2022-08-26T00:43:15.946Z,101152.00
2022-08-26T00:45:56.537Z,101155.00
2022-08-26T00:48:25.659Z,101151.00
2022-08-26T00:51:02.194Z,101142.00
2022-08-26T00:53:34.425Z,101143.00
2022-08-26T00:56:16.926Z,101145.00
2022-08-26T00:58:45.394Z,101142.00
2022-08-26T01:01:12.372Z,101151.00
2022-08-26T01:03:40.534Z,101147.00
2022-08-26T01:06:12.362Z,101143.00
2022-08-26T01:08:39.597Z,101145.00
2022-08-26T01:11:06.718Z,101142.00
2022-08-26T01:13:37.300Z,101142.00
2022-08-26T01:16:06.378Z,101145.00
2022-08-26T01:18:33.269Z,101145.00
2022-08-26T01:21:12.364Z,101143.00
2022-08-26T01:23:46.035Z,101141.00
2022-08-26T01:26:24.274Z,101150.00
2022-08-26T01:28:56.612Z,101144.00
2022-08-26T01:31:27.171Z,101145.00
2022-08-26T01:34:06.727Z,101143.00
2022-08-26T01:36:37.976Z,101147.00
2022-08-26T01:39:06.049Z,101144.00
2022-08-26T01:41:35.019Z,101136.00
2022-08-26T01:44:03.226Z,101137.00
2022-08-26T01:46:30.439Z,101134.00
2022-08-26T01:49:00.397Z,101132.00
2022-08-26T01:51:28.182Z,101136.00
2022-08-26T01:53:57.755Z,101120.00
2022-08-26T01:56:26.572Z,101128.00
2022-08-26T01:59:02.872Z,101123.00
2022-08-26T02:01:29.455Z,101126.00
2022-08-26T02:04:08.046Z,101116.00
2022-08-26T02:06:37.301Z,101116.00
2022-08-26T02:09:06.043Z,101117.00
2022-08-26T02:11:33.572Z,101120.00
2022-08-26T02:14:22.906Z,101117.00
2022-08-26T02:16:55.319Z,101116.00
2022-08-26T02:19:33.295Z,101114.00
2022-08-26T02:22:04.308Z,101108.00
2022-08-26T02:24:49.896Z,101110.00
2022-08-26T02:27:23.666Z,101109.00
2022-08-26T02:29:57.086Z,101114.00
2022-08-26T02:32:24.574Z,101106.00
2022-08-26T02:34:51.448Z,101107.00
2022-08-26T02:37:18.283Z,101106.00
2022-08-26T02:39:46.644Z,101105.00
2022-08-26T02:42:14.690Z,101103.00
2022-08-26T02:44:41.237Z,101108.00
2022-08-26T02:47:07.877Z,101109.00
2022-08-26T02:49:34.704Z,101106.00
2022-08-26T02:52:02.035Z,101114.00
2022-08-26T02:54:28.660Z,101113.00
2022-08-26T02:56:56.037Z,101104.00
2022-08-26T02:59:24.382Z,101103.00
2022-08-26T03:01:51.509Z,101108.00
2022-08-26T03:04:18.077Z,101106.00
2022-08-26T03:06:47.022Z,101107.00
2022-08-26T03:09:19.653Z,101105.00
2022-08-26T03:11:47.232Z,101099.00
2022-08-26T03:14:14.160Z,101107.00
2022-08-26T03:16:40.687Z,101099.00
2022-08-26T03:19:08.918Z,101091.00
2022-08-26T03:21:37.252Z,101089.00
2022-08-26T03:24:04.743Z,101087.00
2022-08-26T03:26:31.518Z,101088.00
2022-08-26T03:29:16.707Z,101083.00
2022-08-26T03:31:43.370Z,101082.00
2022-08-26T03:34:11.279Z,101085.00
2022-08-26T03:36:38.665Z,101080.00
2022-08-26T03:39:05.725Z,101084.00
2022-08-26T03:41:34.881Z,101076.00
2022-08-26T03:44:02.405Z,101076.00
2022-08-26T03:46:33.010Z,101089.00
2022-08-26T03:49:01.467Z,101079.00
2022-08-26T03:51:28.760Z,101079.00
2022-08-26T03:53:57.082Z,101066.00
2022-08-26T03:56:23.831Z,101077.00
2022-08-26T03:58:50.914Z,101074.00
2022-08-26T04:01:17.805Z,101076.00
2022-08-26T04:04:00.025Z,101068.00
2022-08-26T04:06:30.386Z,101068.00
2022-08-26T04:08:58.777Z,101059.00
2022-08-26T04:11:30.388Z,101063.00
2022-08-26T04:14:00.074Z,101056.00
2022-08-26T04:16:28.097Z,101060.00
2022-08-26T04:18:55.574Z,101057.00
2022-08-26T04:21:22.577Z,101060.00
2022-08-26T04:23:49.575Z,101063.00
2022-08-26T04:26:20.263Z,101069.00
2022-08-26T04:28:48.625Z,101067.00
2022-08-26T04:31:17.675Z,101064.00
2022-08-26T04:33:47.627Z,101063.00
2022-08-26T04:36:17.261Z,101060.00
2022-08-26T04:38:44.788Z,101055.00
2022-08-26T04:41:15.271Z,101056.00
2022-08-26T04:43:44.476Z,101066.00
2022-08-26T04:46:13.051Z,101062.00
2022-08-26T04:48:41.008Z,101065.00
2022-08-26T04:51:09.080Z,101061.00
2022-08-26T04:53:36.820Z,101062.00
2022-08-26T04:56:04.191Z,101064.00
2022-08-26T04:58:31.024Z,101074.00
2022-08-26T05:00:58.413Z,101071.00
2022-08-26T05:03:27.347Z,101074.00
2022-08-26T05:05:57.762Z,101073.00
2022-08-26T05:08:24.262Z,101078.00
2022-08-26T05:10:56.086Z,101069.00
2022-08-26T05:13:26.191Z,101074.00
2022-08-26T05:15:52.910Z,101075.00
2022-08-26T05:18:22.704Z,101073.00
2022-08-26T05:20:54.554Z,101069.00
2022-08-26T05:23:23.129Z,101071.00
2022-08-26T05:25:54.649Z,101075.00
2022-08-26T05:28:23.673Z,101078.00
2022-08-26T05:30:50.533Z,101083.00
2022-08-26T05:33:18.371Z,101082.00
2022-08-26T05:35:45.294Z,101082.00
2022-08-26T05:38:19.336Z,101076.00
2022-08-26T05:40:49.553Z,101072.00
2022-08-26T05:43:21.209Z,101070.00
2022-08-26T05:45:50.200Z,101078.00
2022-08-26T05:48:24.076Z,101074.00
2022-08-26T05:50:53.161Z,101065.00
2022-08-26T05:53:21.747Z,101066.00
2022-08-26T05:55:51.814Z,101058.00
2022-08-26T05:58:20.850Z,101065.00
2022-08-26T06:00:57.026Z,101069.00
2022-08-26T06:03:23.578Z,101059.00
2022-08-26T06:05:50.037Z,101062.00
2022-08-26T06:08:19.270Z,101063.00
2022-08-26T06:10:52.734Z,101063.00
2022-08-26T06:13:26.786Z,101065.00
2022-08-26T06:15:54.493Z,101048.00
2022-08-26T06:18:25.163Z,101015.00
2022-08-26T06:20:58.005Z,100959.00
2022-08-26T06:23:44.666Z,100833.00
2022-08-26T06:26:12.613Z,100786.00
2022-08-26T06:28:39.059Z,100781.00
2022-08-26T06:31:05.976Z,100784.00
2022-08-26T06:33:32.790Z,100768.00
2022-08-26T06:36:01.003Z,100772.00
2022-08-26T06:38:27.512Z,100767.00
2022-08-26T06:40:59.780Z,100767.00
2022-08-26T06:43:28.579Z,100767.00
2022-08-26T06:46:07.154Z,100771.00
2022-08-26T06:48:33.882Z,100826.00
2022-08-26T06:51:18.297Z,101038.00
2022-08-26T06:53:46.929Z,101049.00
2022-08-26T06:56:16.792Z,101054.00
2022-08-26T06:58:43.527Z,101066.00
2022-08-26T07:01:22.615Z,101059.00
2022-08-26T07:03:50.985Z,101052.00
2022-08-26T07:06:21.092Z,101063.00
2022-08-26T07:08:48.926Z,101061.00
2022-08-26T07:11:16.385Z,101057.00
2022-08-26T07:13:43.371Z,101055.00
2022-08-26T07:16:12.545Z,101051.00
2022-08-26T07:18:42.436Z,101046.00
2022-08-26T07:21:13.845Z,101059.00
2022-08-26T07:23:41.314Z,101059.00
2022-08-26T07:26:12.591Z,101063.00
2022-08-26T07:28:39.403Z,101062.00
2022-08-26T07:31:09.663Z,101056.00
2022-08-26T07:33:36.931Z,101055.00
2022-08-26T07:36:04.202Z,101054.00
2022-08-26T07:38:31.041Z,101060.00
2022-08-26T07:41:02.423Z,101066.00
2022-08-26T07:43:29.682Z,101055.00
2022-08-26T07:45:56.691Z,101056.00
2022-08-26T07:48:23.706Z,101058.00
2022-08-26T07:50:50.944Z,101054.00
2022-08-26T07:53:21.403Z,101055.00
2022-08-26T07:55:49.397Z,101058.00
2022-08-26T07:58:17.156Z,101058.00
2022-08-26T08:00:43.637Z,101056.00
2022-08-26T08:03:11.299Z,101059.00
2022-08-26T08:05:38.150Z,101058.00
2022-08-26T08:08:26.278Z,101059.00
2022-08-26T08:10:55.475Z,101057.00
2022-08-26T08:13:22.993Z,101058.00
2022-08-26T08:15:50.719Z,101061.00
2022-08-26T08:18:17.816Z,101052.00
2022-08-26T08:21:04.679Z,101064.00
2022-08-26T08:23:33.006Z,101053.00
2022-08-26T08:26:09.826Z,101055.00
2022-08-26T08:28:39.451Z,101051.00
2022-08-26T08:31:08.089Z,101053.00
2022-08-26T08:33:35.229Z,101051.00
2022-08-26T08:36:02.086Z,101052.00
2022-08-26T08:38:29.263Z,101048.00
2022-08-26T08:40:55.706Z,101049.00
2022-08-26T08:43:38.326Z,101038.00
2022-08-26T08:46:10.410Z,101045.00
2022-08-26T08:48:41.741Z,101037.00
2022-08-26T08:51:30.315Z,101030.00
2022-08-26T08:53:56.850Z,101030.00
2022-08-26T08:56:38.922Z,101032.00
2022-08-26T08:59:17.695Z,101029.00
2022-08-26T09:01:58.566Z,101025.00
2022-08-26T09:04:46.943Z,101023.00
2022-08-26T09:07:19.153Z,101017.00
2022-08-26T09:10:04.569Z,101017.00
2022-08-26T09:12:33.890Z,101020.00
2022-08-26T09:15:25.424Z,101017.00
2022-08-26T09:18:16.726Z,101019.00
2022-08-26T09:20:58.263Z,101013.00
2022-08-26T09:23:26.172Z,101007.00
2022-08-26T09:26:00.353Z,101035.00
2022-08-26T09:28:30.742Z,101032.00
2022-08-26T09:31:19.296Z,101032.00
2022-08-26T09:33:47.773Z,101030.00
2022-08-26T09:36:41.530Z,101033.00
2022-08-26T09:39:28.158Z,101031.00
2022-08-26T09:42:10.258Z,101023.00
2022-08-26T09:44:58.442Z,101022.00
2022-08-26T09:47:31.791Z,101017.00
2022-08-26T09:50:12.538Z,101001.00
2022-08-26T09:52:40.491Z,100997.00
2022-08-26T09:55:22.270Z,100986.00
2022-08-26T09:57:55.914Z,101005.00
2022-08-26T10:00:30.005Z,101005.00
2022-08-26T10:02:59.153Z,101000.00
2022-08-26T10:05:39.348Z,100985.00
2022-08-26T10:08:21.482Z,100981.00
2022-08-26T10:10:53.058Z,100968.00
2022-08-26T10:13:35.056Z,100965.00
2022-08-26T10:16:15.666Z,100972.00
2022-08-26T10:18:47.723Z,100964.00
2022-08-26T10:21:23.011Z,100957.00
2022-08-26T10:23:52.240Z,100949.00
2022-08-26T10:26:57.490Z,100944.00
2022-08-26T10:29:45.689Z,100926.00
2022-08-26T10:32:20.437Z,100908.00
2022-08-26T10:34:47.472Z,100913.00
2022-08-26T10:37:18.479Z,100914.00
2022-08-26T10:40:07.483Z,100892.00
2022-08-26T10:42:37.572Z,100879.00
2022-08-26T10:45:11.698Z,100877.00
2022-08-26T10:47:57.124Z,100892.00
2022-08-26T10:50:32.796Z,100897.00
2022-08-26T10:53:19.495Z,100897.00
2022-08-26T10:56:29.218Z,100893.00
2022-08-26T10:59:14.595Z,100896.00
2022-08-26T11:01:52.454Z,100888.00
2022-08-26T11:04:38.506Z,100893.00
2022-08-26T11:07:42.611Z,100883.00
2022-08-26T11:10:21.655Z,100886.00
2022-08-26T11:12:51.746Z,100880.00
2022-08-26T11:15:19.856Z,100890.00
2022-08-26T11:17:51.251Z,100893.00
2022-08-26T11:20:29.934Z,100890.00
2022-08-26T11:23:28.189Z,100883.00
2022-08-26T11:26:30.037Z,100894.00
2022-08-26T11:29:01.339Z,100884.00
2022-08-26T11:31:30.504Z,100870.00
2022-08-26T11:34:00.127Z,100859.00
2022-08-26T11:36:40.124Z,100853.00
2022-08-26T11:39:28.847Z,100872.00
2022-08-26T11:42:00.028Z,100894.00
2022-08-26T11:44:36.080Z,100904.00
2022-08-26T11:47:03.081Z,100913.00
2022-08-26T11:49:31.830Z,100891.00
2022-08-26T11:52:08.143Z,100875.00
2022-08-26T11:54:35.480Z,100877.00
2022-08-26T11:57:09.292Z,100888.00
2022-08-26T11:59:39.935Z,100892.00
2022-08-26T12:02:15.288Z,100909.00
2022-08-26T12:04:46.146Z,100930.00
2022-08-26T12:07:12.835Z,100946.00
2022-08-26T12:09:56.384Z,100969.00
2022-08-26T12:12:42.456Z,100971.00
2022-08-26T12:15:16.283Z,100969.00
2022-08-26T12:17:44.002Z,100956.00
2022-08-26T12:20:28.952Z,100944.00
2022-08-26T12:22:56.585Z,100932.00
2022-08-26T12:25:24.884Z,100922.00
2022-08-26T12:27:54.049Z,100931.00
2022-08-26T12:30:26.174Z,100927.00
2022-08-26T12:33:21.933Z,100949.00
2022-08-26T12:35:54.308Z,100975.00
2022-08-26T12:38:24.598Z,100982.00
2022-08-26T12:40:51.110Z,100972.00
2022-08-26T12:43:38.934Z,100970.00
2022-08-26T12:46:06.648Z,100978.00
2022-08-26T12:48:36.236Z,100992.00
2022-08-26T12:51:03.673Z,100988.00
2022-08-26T12:53:33.388Z,100971.00
2022-08-26T12:56:18.310Z,100973.00
2022-08-26T12:58:45.147Z,100975.00
2022-08-26T13:01:11.694Z,100974.00
2022-08-26T13:03:46.098Z,100970.00
2022-08-26T13:06:22.202Z,100971.00
2022-08-26T13:08:59.891Z,100954.00
2022-08-26T13:11:28.147Z,100946.00
2022-08-26T13:14:00.548Z,100947.00
2022-08-26T13:16:28.743Z,100957.00
2022-08-26T13:18:59.270Z,100970.00
2022-08-26T13:21:29.111Z,100985.00
2022-08-26T13:24:09.102Z,100994.00
2022-08-26T13:26:35.615Z,100996.00
2022-08-26T13:29:05.310Z,100990.00
2022-08-26T13:31:36.370Z,100967.00
2022-08-26T13:34:04.142Z,100964.00
2022-08-26T13:36:31.436Z,100965.00
2022-08-26T13:38:58.017Z,100948.00
2022-08-26T13:41:29.334Z,100949.00
2022-08-26T13:43:56.376Z,100956.00
2022-08-26T13:46:23.056Z,100949.00
2022-08-26T13:48:49.590Z,100955.00
2022-08-26T13:51:18.464Z,100949.00
2022-08-26T13:53:45.299Z,100962.00
2022-08-26T13:56:11.925Z,100947.00
2022-08-26T13:58:38.787Z,100948.00
2022-08-26T14:01:05.349Z,100932.00
2022-08-26T14:03:32.134Z,100922.00
2022-08-26T14:05:59.294Z,100920.00
2022-08-26T14:08:26.183Z,100912.00
2022-08-26T14:10:52.709Z,100919.00
2022-08-26T14:13:19.589Z,100921.00
2022-08-26T14:15:46.592Z,100921.00
2022-08-26T14:18:16.922Z,100923.00
2022-08-26T14:20:50.210Z,100920.00
2022-08-26T14:23:18.003Z,100913.00
2022-08-26T14:25:44.997Z,100908.00
2022-08-26T14:28:12.042Z,100907.00
2022-08-26T14:30:44.335Z,100904.00
2022-08-26T14:33:13.053Z,100900.00
2022-08-26T14:35:39.892Z,100921.00
2022-08-26T14:38:14.471Z,100949.00
2022-08-26T14:40:46.784Z,100985.00
2022-08-26T14:43:15.305Z,100981.00
2022-08-26T14:45:45.139Z,100970.00
2022-08-26T14:48:11.750Z,100951.00
2022-08-26T14:50:39.282Z,100935.00
2022-08-26T14:53:24.230Z,100914.00
2022-08-26T14:55:50.854Z,100882.00
2022-08-26T14:58:17.444Z,100867.00
2022-08-26T15:00:43.978Z,100847.00
2022-08-26T15:03:10.552Z,100848.00
2022-08-26T15:05:37.193Z,100833.00
2022-08-26T15:08:10.197Z,100824.00
2022-08-26T15:10:36.982Z,100826.00
2022-08-26T15:13:03.457Z,100857.00
2022-08-26T15:15:29.933Z,100862.00
2022-08-26T15:17:57.168Z,100863.00
2022-08-26T15:20:23.936Z,100856.00
2022-08-26T15:22:50.518Z,100851.00
2022-08-26T15:25:17.897Z,100844.00
2022-08-26T15:27:44.547Z,100835.00
2022-08-26T15:30:12.088Z,100833.00
2022-08-26T15:32:38.610Z,100820.00
2022-08-26T15:35:09.129Z,100800.00
2022-08-26T15:37:36.405Z,100787.00
2022-08-26T15:40:04.624Z,100783.00
2022-08-26T15:42:31.400Z,100776.00
2022-08-26T15:44:58.114Z,100768.00
2022-08-26T15:47:24.895Z,100759.00
2022-08-26T15:49:51.502Z,100756.00
2022-08-26T15:52:19.510Z,100749.00
2022-08-26T15:54:46.044Z,100756.00
2022-08-26T15:57:15.305Z,100748.00
2022-08-26T15:59:43.049Z,100751.00
2022-08-26T16:02:09.791Z,100746.00
2022-08-26T16:04:36.282Z,100754.00
2022-08-26T16:07:04.390Z,100756.00
2022-08-26T16:09:30.925Z,100753.00
2022-08-26T16:11:58.101Z,100747.00
2022-08-26T16:14:26.014Z,100741.00
2022-08-26T16:16:53.695Z,100736.00
2022-08-26T16:19:21.049Z,100739.00
2022-08-26T16:21:48.088Z,100734.00
2022-08-26T16:24:15.257Z,100737.00
2022-08-26T16:26:43.863Z,100737.00
2022-08-26T16:29:12.746Z,100742.00
2022-08-26T16:31:39.633Z,100743.00
2022-08-26T16:34:07.323Z,100750.00
2022-08-26T16:36:34.608Z,100752.00
2022-08-26T16:39:01.307Z,100761.00
2022-08-26T16:41:29.490Z,100759.00
2022-08-26T16:43:56.272Z,100763.00
2022-08-26T16:46:25.656Z,100765.00
2022-08-26T16:48:53.942Z,100775.00
2022-08-26T16:51:23.022Z,100766.00
2022-08-26T16:53:50.965Z,100776.00
2022-08-26T16:56:21.879Z,100769.00
2022-08-26T16:58:48.854Z,100767.00
2022-08-26T17:01:16.446Z,100773.00
2022-08-26T17:03:43.174Z,100771.00
2022-08-26T17:06:10.061Z,100773.00
2022-08-26T17:08:37.696Z,100782.00
2022-08-26T17:11:04.303Z,100791.00
2022-08-26T17:13:34.611Z,100788.00
2022-08-26T17:16:04.820Z,100785.00
2022-08-26T17:18:32.412Z,100782.00
2022-08-26T17:21:08.392Z,100794.00
2022-08-26T17:23:35.856Z,100789.00
2022-08-26T17:26:02.766Z,100784.00
2022-08-26T17:28:29.331Z,100792.00
2022-08-26T17:30:57.546Z,100798.00
2022-08-26T17:33:25.292Z,100796.00
2022-08-26T17:35:52.971Z,100797.00
2022-08-26T17:38:21.209Z,100799.00
2022-08-26T17:40:48.104Z,100789.00
2022-08-26T17:43:14.567Z,100795.00
2022-08-26T17:45:41.442Z,100794.00
2022-08-26T17:48:08.124Z,100786.00
2022-08-26T17:50:34.889Z,100787.00
2022-08-26T17:53:01.510Z,100782.00
2022-08-26T17:55:27.998Z,100782.00
2022-08-26T17:57:54.467Z,100779.00
2022-08-26T18:00:22.917Z,100784.00
2022-08-26T18:02:49.415Z,100785.00
2022-08-26T18:05:17.430Z,100786.00
2022-08-26T18:07:44.771Z,100783.00
2022-08-26T18:10:15.398Z,100788.00
2022-08-26T18:12:42.479Z,100793.00
2022-08-26T18:15:11.560Z,100790.00
2022-08-26T18:17:41.742Z,100784.00
2022-08-26T18:20:12.605Z,100779.00
2022-08-26T18:22:39.541Z,100780.00
2022-08-26T18:25:08.015Z,100781.00
2022-08-26T18:27:36.139Z,100780.00
2022-08-26T18:30:10.501Z,100776.00
2022-08-26T18:32:38.887Z,100771.00
2022-08-26T18:35:05.644Z,100768.00
2022-08-26T18:37:32.359Z,100767.00
2022-08-26T18:39:59.563Z,100768.00
2022-08-26T18:42:26.631Z,100770.00
2022-08-26T18:44:53.466Z,100764.00
2022-08-26T18:47:20.115Z,100756.00
2022-08-26T18:49:47.261Z,100759.00
2022-08-26T18:52:13.715Z,100756.00
2022-08-26T18:54:40.255Z,100743.00
2022-08-26T18:57:07.135Z,100748.00
2022-08-26T18:59:33.707Z,100746.00
2022-08-26T19:02:00.233Z,100752.00
2022-08-26T19:04:26.829Z,100738.00
2022-08-26T19:06:53.871Z,100750.00
2022-08-26T19:09:20.929Z,100757.00
2022-08-26T19:11:49.681Z,100765.00
2022-08-26T19:14:17.546Z,100771.00
2022-08-26T19:16:46.503Z,100775.00
2022-08-26T19:19:13.862Z,100775.00
2022-08-26T19:21:40.478Z,100778.00
2022-08-26T19:24:12.215Z,100790.00
2022-08-26T19:26:39.053Z,100790.00
2022-08-26T19:29:05.670Z,100801.00
2022-08-26T19:31:32.135Z,100815.00
2022-08-26T19:33:58.988Z,100828.00
2022-08-26T19:36:27.040Z,100827.00
2022-08-26T19:38:54.374Z,100826.00
2022-08-26T19:41:36.890Z,100829.00
2022-08-26T19:44:07.603Z,100823.00
2022-08-26T19:46:34.301Z,100820.00
2022-08-26T19:49:00.880Z,100829.00
2022-08-26T19:51:30.232Z,100836.00
2022-08-26T19:53:59.230Z,100836.00
2022-08-26T19:56:28.650Z,100832.00
2022-08-26T19:58:55.734Z,100832.00
2022-08-26T20:01:22.913Z,100828.00
2022-08-26T20:03:49.708Z,100827.00
2022-08-26T20:06:16.819Z,100825.00
2022-08-26T20:08:45.326Z,100831.00
2022-08-26T20:11:17.084Z,100836.00
2022-08-26T20:13:44.611Z,100829.00
2022-08-26T20:16:12.317Z,100829.00
2022-08-26T20:18:59.181Z,100825.00
2022-08-26T20:21:26.205Z,100818.00
2022-08-26T20:24:00.447Z,100805.00
2022-08-26T20:26:29.488Z,100810.00
2022-08-26T20:28:56.592Z,100806.00
2022-08-26T20:31:24.108Z,100808.00
2022-08-26T20:33:51.687Z,100811.00
2022-08-26T20:36:20.595Z,100813.00
2022-08-26T20:38:48.326Z,100822.00
2022-08-26T20:41:14.866Z,100825.00
2022-08-26T20:43:42.940Z,100832.00
2022-08-26T20:46:17.960Z,100834.00
2022-08-26T20:48:46.486Z,100837.00
2022-08-26T20:51:13.019Z,100839.00
2022-08-26T20:53:41.351Z,100849.00
2022-08-26T20:56:09.619Z,100847.00
2022-08-26T20:58:38.563Z,100844.00
2022-08-26T21:01:07.970Z,100839.00
2022-08-26T21:03:35.999Z,100839.00
2022-08-26T21:06:03.749Z,100846.00
2022-08-26T21:08:33.462Z,100847.00
2022-08-26T21:11:00.580Z,100863.00
2022-08-26T21:13:27.328Z,100865.00
2022-08-26T21:15:58.070Z,100860.00
2022-08-26T21:18:24.613Z,100860.00
2022-08-26T21:20:51.641Z,100850.00
2022-08-26T21:23:19.068Z,100851.00
2022-08-26T21:25:45.903Z,100846.00
2022-08-26T21:28:12.346Z,100836.00
2022-08-26T21:30:40.060Z,100836.00
2022-08-26T21:33:07.366Z,100825.00
2022-08-26T21:35:33.886Z,100825.00
2022-08-26T21:38:00.506Z,100818.00
2022-08-26T21:40:27.766Z,100814.00
2022-08-26T21:42:54.352Z,100815.00
2022-08-26T21:45:20.892Z,100817.00
2022-08-26T21:47:47.343Z,100823.00
2022-08-26T21:50:13.938Z,100818.00
2022-08-26T21:52:40.615Z,100815.00
2022-08-26T21:55:08.977Z,100827.00
2022-08-26T21:57:35.598Z,100831.00
2022-08-26T22:00:04.556Z,100828.00
2022-08-26T22:02:31.868Z,100822.00
2022-08-26T22:04:58.563Z,100826.00
2022-08-26T22:07:25.062Z,100828.00
2022-08-26T22:09:51.546Z,100829.00
2022-08-26T22:12:21.326Z,100829.00
2022-08-26T22:14:48.679Z,100828.00
2022-08-26T22:17:15.746Z,100833.00
2022-08-26T22:19:46.083Z,100833.00
2022-08-26T22:22:14.077Z,100844.00
2022-08-26T22:24:40.526Z,100838.00
2022-08-26T22:27:07.062Z,100823.00
2022-08-26T22:29:33.695Z,100827.00
2022-08-26T22:32:00.938Z,100831.00
2022-08-26T22:34:28.059Z,100829.00
2022-08-26T22:36:54.606Z,100820.00
2022-08-26T22:39:23.404Z,100822.00
2022-08-26T22:41:52.315Z,100809.00
2022-08-26T22:44:20.626Z,100801.00
2022-08-26T22:46:48.689Z,100797.00
2022-08-26T22:49:16.422Z,100789.00
2022-08-26T22:51:44.143Z,100785.00
2022-08-26T22:54:11.060Z,100789.00
2022-08-26T22:56:37.996Z,100792.00
2022-08-26T22:59:09.168Z,100790.00
2022-08-26T23:01:38.462Z,100786.00
2022-08-26T23:04:06.632Z,100773.00
2022-08-26T23:06:37.734Z,100777.00
2022-08-26T23:09:05.390Z,100771.00
2022-08-26T23:11:32.196Z,100755.00
2022-08-26T23:13:58.642Z,100758.00
2022-08-26T23:16:28.036Z,100743.00
2022-08-26T23:19:02.353Z,100739.00
2022-08-26T23:21:28.955Z,100728.00
2022-08-26T23:23:55.634Z,100725.00
2022-08-26T23:26:22.083Z,100729.00
2022-08-26T23:28:49.783Z,100724.00
2022-08-26T23:31:16.324Z,100716.00
2022-08-26T23:34:01.591Z,100736.00
2022-08-26T23:36:30.284Z,100747.00
2022-08-26T23:38:57.297Z,100772.00
2022-08-26T23:41:24.359Z,100770.00
2022-08-26T23:43:51.711Z,100769.00
2022-08-26T23:46:18.858Z,100771.00
2022-08-26T23:48:45.674Z,100773.00
2022-08-26T23:51:31.346Z,100762.00
2022-08-26T23:53:57.895Z,100763.00
2022-08-26T23:56:24.772Z,100773.00
2022-08-26T23:58:54.974Z,100764.00
